Chippewa County International Airport
KCIU : now visible

Airfield :











YOU CAN JOIN US ON...

 
LOGIN :

Register | Disclaimer

   EN    FR    IT 

 









Legend :    VFR   Marginal VFR   IFR   Intensive IFR   Very Intensive IFR
Visi :
Ceiling :
>= 8 km
>= 3000ft
5 to 8 km
1000 to 3000 ft
1500m to 5 km
500 to 1000 ft
800 to 1500m
200 to 500 ft
< 800m
< 200 ft
Symbols :   Thunderstorms  Fog  Heavy snow  Heavy precipitations  Wind > 20 kt






- Airport Elevation : 800 ft
- IATA code : CIU


KCIU - Chippewa County International

CURRENT METAR :
  • 211756Z AUTO 33018G25KT 9SM SCT007 OVC018 07/04 A2981 RMK AO2 RAE1659 SLP096 P0001 60003 T00670039 10067 20056 56006

EXPIRED METARs :
  • 211656Z AUTO 35009KT 10SM -RA BKN007 OVC013 06/06 A2981 RMK AO2 SLP098 P0000 T00610056
  • 211611Z AUTO 01010KT 10SM -RA BKN007 OVC070 06/05 A2982 RMK AO2 CIG 005V009 P0000
  • 211556Z AUTO 02010KT 9SM -RA FEW007 OVC070 06/05 A2982 RMK AO2 SLP099 P0001 T00610050
  • 211525Z AUTO 02009KT 9SM -RA SCT005 OVC070 06/06 A2982 RMK AO2 P0001

TAF N/A
KZMP FIR / North America



MET'MAP, your aeronautical weather chart ! - Copyright ORBIFLY December 2007 - Disclaimer

ORBIFLY MET'MAP TEAM :

Programming & Development : Alexandra Zaïnal
Concept & original design : Baudouin d'Aumeries
Assistance for programming : Marc-Olivier Méhu
Technical & hardware support : Manuel Goepfert

Contact : metmap@orbifly.com




SOURCES & CREDITS :

   NOAA       Earth
Advisory